Terminal Aerodrome Forecast
Issued by NWS

Home | Current Version | Previous Version | Text Only | Print | Product List | Glossary On
Versions: 1 2 3 4 5 6 7 8 9 10 11 12 13 14 15 16 17 18 19 20 21 22 23 24 25 26 27 28 29 30
528
FTAK31 PAFA 301122
TAFAUN
TAF
PAUN 301122Z 3012/3112 21015G25KT 6SM RA BR BKN015 OVC025
     FM301500 18012KT 5SM -RA BR OVC015
     FM310000 03015KT P6SM VCSH BKN015 OVC025=

USA.gov is the U.S. government's official web portal to all federal, state and local government web resources and services.